Orenge 7 — JL6148 — position and weather

sailwx.info

Track history (hours):
 
Tides and Currents Weather Stations Pressure Air Temp Water Temp Dewpoint Dewpoint Depression Visibility Wind Speed Wind Dir Waves Ship Positions

Orenge 7

Last reported at 2016-Sep-29 00:31 UTC. Time now 2016-Sep-29 05:02 UTC.
Position N 34°37' E 135°26'.

Length 163 m; draft 4.9 m.

Type: Passenger vessel. MMSI: 431500186.

Date/timePositionNaut miles runAvg speedWind from/ knotsBaromVisibWave heightAir tempDewpointWater temp
2016-Sep-29 00:31N 34°37' E 135°26'0 0.0
2016-Sep-28 21:09N 34°37' E 135°26'2314.7
2016-Sep-28 19:33N 34°36' E 134°57'1 0.0
2016-Sep-27 14:31N 34°37' E 134°58'1717.4
2016-Sep-27 13:33N 34°36' E 135°18'6 2.0
2016-Sep-27 10:28N 34°37' E 135°26'0 0.0
2016-Sep-27 00:28N 34°37' E 135°26'5 1.3
2016-Sep-26 20:33N 34°36' E 135°20'1616.3
2016-Sep-26 19:33N 34°37' E 134°60'13 0.5
2016-Sep-25 15:13N 34°33' E 134°45'1218.0
2016-Sep-25 14:33N 34°37' E 134°59'2211.1
2016-Sep-25 12:32N 34°37' E 135°26'0 0.0
2016-Sep-25 11:32N 34°37' E 135°26'0 0.0
2016-Sep-25 10:32N 34°37' E 135°26'0 0.0
2016-Sep-25 09:32N 34°37' E 135°26'0 0.0
2016-Sep-25 07:32N 34°37' E 135°26'0 0.0
2016-Sep-25 04:33N 34°37' E 135°26'0 0.0
2016-Sep-25 00:32N 34°37' E 135°26'0 0.0
2016-Sep-24 22:27N 34°37' E 135°26'0 0.0
2016-Sep-24 21:15N 34°37' E 135°26'2313.8
2016-Sep-24 19:33N 34°37' E 134°58'17 0.6
2016-Sep-23 13:34N 34°37' E 135°18'6 1.5
2016-Sep-23 09:31N 34°37' E 135°26'0 0.0
2016-Sep-23 06:31N 34°37' E 135°26'0 0.0
2016-Sep-23 04:31N 34°37' E 135°26'0 0.0
2016-Sep-23 03:25N 34°37' E 135°26'0 0.0
2016-Sep-23 02:31N 34°37' E 135°26'0 0.0
2016-Sep-23 01:31N 34°37' E 135°26'0 0.0
2016-Sep-23 00:25N 34°37' E 135°26'0 0.0
2016-Sep-22 23:25N 34°37' E 135°26'5 1.8
2016-Sep-22 20:34N 34°36' E 135°20'5 0.2
2016-Sep-21 09:31N 34°37' E 135°26'0 0.0
2016-Sep-21 08:31N 34°37' E 135°26'0 0.0
2016-Sep-21 03:25N 34°37' E 135°26'0 0.0
2016-Sep-21 02:31N 34°37' E 135°26'19 0.5
2016-Sep-19 14:33N 34°36' E 135°03'1413.9
2016-Sep-19 13:34N 34°36' E 135°20'5 4.7
2016-Sep-19 12:28N 34°37' E 135°26'0 0.0
2016-Sep-19 11:28N 34°37' E 135°26'0 0.0
2016-Sep-19 09:28N 34°37' E 135°26'0 0.0
2016-Sep-19 07:28N 34°37' E 135°26'0 0.0
2016-Sep-19 06:31N 34°37' E 135°26'0 0.0
2016-Sep-19 03:19N 34°37' E 135°26'0 0.0
2016-Sep-19 02:31N 34°37' E 135°26'0 0.0
2016-Sep-19 00:31N 34°37' E 135°26'  
Track history (hours):
 
Tides and Currents Weather Stations Pressure Air Temp Water Temp Dewpoint Dewpoint Depression Visibility Wind Speed Wind Dir Waves Ship Positions

Orenge 7

Last reported at 2016-Sep-29 00:31 UTC. Time now 2016-Sep-29 05:02 UTC.
Position N 34°37' E 135°26'.

Length 163 m; draft 4.9 m.

Type: Passenger vessel. MMSI: 431500186.

Date/timePositionNaut miles runAvg speedWind from/ knotsBaromVisibWave heightAir tempDewpointWater temp
2016-Sep-29 00:31N 34°37' E 135°26'0 0.0
2016-Sep-28 21:09N 34°37' E 135°26'2314.7
2016-Sep-28 19:33N 34°36' E 134°57'1 0.0
2016-Sep-27 14:31N 34°37' E 134°58'1717.4
2016-Sep-27 13:33N 34°36' E 135°18'6 2.0
2016-Sep-27 10:28N 34°37' E 135°26'0 0.0
2016-Sep-27 00:28N 34°37' E 135°26'5 1.3
2016-Sep-26 20:33N 34°36' E 135°20'1616.3
2016-Sep-26 19:33N 34°37' E 134°60'13 0.5
2016-Sep-25 15:13N 34°33' E 134°45'1218.0
2016-Sep-25 14:33N 34°37' E 134°59'2211.1
2016-Sep-25 12:32N 34°37' E 135°26'0 0.0
2016-Sep-25 11:32N 34°37' E 135°26'0 0.0
2016-Sep-25 10:32N 34°37' E 135°26'0 0.0
2016-Sep-25 09:32N 34°37' E 135°26'0 0.0
2016-Sep-25 07:32N 34°37' E 135°26'0 0.0
2016-Sep-25 04:33N 34°37' E 135°26'0 0.0
2016-Sep-25 00:32N 34°37' E 135°26'0 0.0
2016-Sep-24 22:27N 34°37' E 135°26'0 0.0
2016-Sep-24 21:15N 34°37' E 135°26'2313.8
2016-Sep-24 19:33N 34°37' E 134°58'17 0.6
2016-Sep-23 13:34N 34°37' E 135°18'6 1.5
2016-Sep-23 09:31N 34°37' E 135°26'0 0.0
2016-Sep-23 06:31N 34°37' E 135°26'0 0.0
2016-Sep-23 04:31N 34°37' E 135°26'0 0.0
2016-Sep-23 03:25N 34°37' E 135°26'0 0.0
2016-Sep-23 02:31N 34°37' E 135°26'0 0.0
2016-Sep-23 01:31N 34°37' E 135°26'0 0.0
2016-Sep-23 00:25N 34°37' E 135°26'0 0.0
2016-Sep-22 23:25N 34°37' E 135°26'5 1.8
2016-Sep-22 20:34N 34°36' E 135°20'5 0.2
2016-Sep-21 09:31N 34°37' E 135°26'0 0.0
2016-Sep-21 08:31N 34°37' E 135°26'0 0.0
2016-Sep-21 03:25N 34°37' E 135°26'0 0.0
2016-Sep-21 02:31N 34°37' E 135°26'19 0.5
2016-Sep-19 14:33N 34°36' E 135°03'1413.9
2016-Sep-19 13:34N 34°36' E 135°20'5 4.7
2016-Sep-19 12:28N 34°37' E 135°26'0 0.0
2016-Sep-19 11:28N 34°37' E 135°26'0 0.0
2016-Sep-19 09:28N 34°37' E 135°26'0 0.0
2016-Sep-19 07:28N 34°37' E 135°26'0 0.0
2016-Sep-19 06:31N 34°37' E 135°26'0 0.0
2016-Sep-19 03:19N 34°37' E 135°26'0 0.0
2016-Sep-19 02:31N 34°37' E 135°26'0 0.0
2016-Sep-19 00:31N 34°37' E 135°26'  

Dump ship's entire track history